Time;durP1;ratioP1;P1;durP2;ratioP2;P2;SDS_P1;SDS_P2;PMS_P1;PMS_P2;Temp;Humidity;BMP_temperature;BMP_pressure;BME280_temperature;BME280_humidity;BME280_pressure;Samples;Min_cycle;Max_cycle;Signal;HPM_P1;HPM_P2
2022/11/21 00:00:14;;;;;;;;;;;6.40;94.60;;;;;;5083688;28;19912;-74
2022/11/21 00:02:39;;;;;;;;;;;6.30;94.60;;;;;;5072511;28;19920;-73
2022/11/21 00:05:05;;;;;;;;;;;6.30;94.60;;;;;;5071593;28;19917;-74
2022/11/21 00:07:30;;;;;;;;;;;6.30;94.60;;;;;;5062391;28;20486;-74
2022/11/21 00:09:56;;;;;;;;;;;6.30;94.60;;;;;;5051639;28;19912;-74
2022/11/21 00:12:21;;;;;;;;;;;6.30;94.60;;;;;;5052120;28;20020;-74
2022/11/21 00:14:47;;;;;;;;;;;6.30;94.60;;;;;;5070396;28;19926;-74
2022/11/21 00:17:12;;;;;;;;;;;6.30;94.60;;;;;;5071096;28;19920;-74
2022/11/21 00:19:38;;;;;;;;;;;6.30;94.60;;;;;;5079275;28;19920;-74
2022/11/21 00:22:04;;;;;;;;;;;6.30;94.50;;;;;;5091672;28;19942;-74
2022/11/21 00:24:29;;;;;;;;;;;6.30;94.90;;;;;;5090171;28;20381;-74
2022/11/21 00:26:55;;;;;;;;;;;6.20;94.60;;;;;;5091830;28;19912;-74
2022/11/21 00:29:20;;;;;;;;;;;6.20;94.90;;;;;;5080208;28;19912;-74
2022/11/21 00:31:46;;;;;;;;;;;6.20;94.50;;;;;;5071278;28;19991;-74
2022/11/21 00:34:11;;;;;;;;;;;6.20;94.50;;;;;;5071335;28;19962;-74
2022/11/21 00:36:37;;;;;;;;;;;6.20;94.50;;;;;;5069413;28;20007;-74
2022/11/21 00:39:02;;;;;;;;;;;6.20;94.60;;;;;;5048520;28;19912;-74
2022/11/21 00:41:27;;;;;;;;;;;6.20;94.50;;;;;;5048092;28;19920;-74
2022/11/21 00:43:53;;;;;;;;;;;6.20;94.50;;;;;;5060483;28;19951;-74
2022/11/21 00:46:18;;;;;;;;;;;6.20;94.60;;;;;;5068118;28;20513;-74
2022/11/21 00:48:46;;;;;;;;;;;6.20;94.50;;;;;;5075400;28;19912;-74
2022/11/21 00:51:12;;;;;;;;;;;6.20;94.60;;;;;;5087657;28;19916;-74
2022/11/21 00:53:37;;;;;;;;;;;6.20;94.50;;;;;;5088400;28;19943;-74
2022/11/21 00:56:03;;;;;;;;;;;6.20;94.50;;;;;;5087867;28;19912;-74
2022/11/21 00:58:28;;;;;;;;;;;6.10;94.50;;;;;;5070012;28;19970;-74
2022/11/21 01:01:03;;;;;;;;;;;6.20;94.50;;;;;;5074348;28;19997;-74
2022/11/21 01:03:30;;;;;;;;;;;6.10;94.50;;;;;;5067492;28;20361;-74
2022/11/21 01:05:59;;;;;;;;;;;6.20;94.50;;;;;;5067414;28;20011;-74
2022/11/21 01:08:24;;;;;;;;;;;6.10;94.50;;;;;;5050744;28;19928;-74
2022/11/21 01:10:50;;;;;;;;;;;6.10;94.50;;;;;;5047299;28;19921;-74
2022/11/21 01:13:15;;;;;;;;;;;6.10;94.50;;;;;;5047364;28;19915;-75
2022/11/21 01:15:41;;;;;;;;;;;6.10;94.50;;;;;;5046969;28;20020;-75
2022/11/21 01:18:06;;;;;;;;;;;6.10;94.50;;;;;;5046880;28;19908;-76
2022/11/21 01:20:32;;;;;;;;;;;6.10;94.50;;;;;;5060740;28;19956;-73
2022/11/21 01:22:57;;;;;;;;;;;6.10;94.50;;;;;;5068451;28;19924;-74
2022/11/21 01:25:23;;;;;;;;;;;6.10;94.50;;;;;;5065978;28;20565;-74
2022/11/21 01:27:48;;;;;;;;;;;6.10;94.50;;;;;;5067208;28;19941;-74
2022/11/21 01:30:16;;;;;;;;;;;6.10;94.50;;;;;;5066765;28;19912;-74
2022/11/21 01:32:41;;;;;;;;;;;6.10;94.50;;;;;;5065508;28;20003;-74
2022/11/21 01:35:07;;;;;;;;;;;6.10;94.50;;;;;;5067113;28;19912;-74
2022/11/21 01:37:32;;;;;;;;;;;6.10;94.50;;;;;;5067139;28;20415;-74
2022/11/21 01:39:58;;;;;;;;;;;6.10;94.50;;;;;;5079884;28;19908;-74
2022/11/21 01:42:23;;;;;;;;;;;6.10;94.50;;;;;;5085272;28;20427;-74
2022/11/21 01:44:50;;;;;;;;;;;6.10;94.50;;;;;;5066250;28;19920;-74
2022/11/21 01:47:16;;;;;;;;;;;6.10;94.50;;;;;;5067071;28;20629;-74
2022/11/21 01:49:42;;;;;;;;;;;6.10;94.50;;;;;;5073552;28;19920;-74
2022/11/21 01:52:15;;;;;;;;;;;6.10;94.50;;;;;;5086898;28;20425;-74
2022/11/21 01:54:53;;;;;;;;;;;6.10;94.70;;;;;;5087253;28;20675;-74
2022/11/21 01:57:18;;;;;;;;;;;6.10;94.40;;;;;;5085743;28;19912;-74
2022/11/21 01:59:54;;;;;;;;;;;6.00;94.40;;;;;;5082749;28;19916;-74
2022/11/21 02:02:22;;;;;;;;;;;6.00;94.40;;;;;;5059256;28;19974;-74
2022/11/21 02:04:47;;;;;;;;;;;6.10;94.50;;;;;;5066920;28;19916;-74
2022/11/21 02:07:14;;;;;;;;;;;6.00;94.50;;;;;;5079236;28;19916;-74
2022/11/21 02:09:42;;;;;;;;;;;6.00;94.50;;;;;;5065315;28;20616;-74
2022/11/21 02:12:10;;;;;;;;;;;6.00;94.50;;;;;;5067675;28;20304;-74
2022/11/21 02:14:37;;;;;;;;;;;6.00;94.50;;;;;;5066110;28;19913;-74
2022/11/21 02:17:04;;;;;;;;;;;6.00;94.50;;;;;;5066182;28;19962;-73
2022/11/21 02:19:39;;;;;;;;;;;6.10;94.50;;;;;;5071550;28;19994;-74
2022/11/21 02:22:15;;;;;;;;;;;6.00;94.50;;;;;;5086494;28;20550;-74
2022/11/21 02:24:41;;;;;;;;;;;6.00;94.50;;;;;;5086532;28;19916;-74
2022/11/21 02:27:06;;;;;;;;;;;6.00;94.50;;;;;;5085670;28;19922;-74
2022/11/21 02:29:32;;;;;;;;;;;6.00;94.50;;;;;;5067037;28;19952;-73
2022/11/21 02:32:04;;;;;;;;;;;6.00;94.60;;;;;;5065693;28;20642;-74
2022/11/21 02:34:30;;;;;;;;;;;6.00;94.50;;;;;;5065774;28;19923;-74
2022/11/21 02:36:55;;;;;;;;;;;6.00;94.50;;;;;;5061996;28;19912;-74
2022/11/21 02:39:27;;;;;;;;;;;6.00;94.50;;;;;;5045775;28;19913;-74
2022/11/21 02:41:56;;;;;;;;;;;6.00;94.50;;;;;;5056849;28;19916;-74
2022/11/21 02:44:27;;;;;;;;;;;6.00;94.50;;;;;;5066230;28;19958;-74
2022/11/21 02:46:53;;;;;;;;;;;6.00;94.50;;;;;;5065659;28;19966;-73
2022/11/21 02:49:22;;;;;;;;;;;6.00;94.50;;;;;;5069272;28;19920;-74
2022/11/21 02:51:48;;;;;;;;;;;6.00;94.50;;;;;;5085594;28;19941;-74
2022/11/21 02:54:13;;;;;;;;;;;6.00;94.50;;;;;;5086098;28;19912;-74
2022/11/21 02:56:38;;;;;;;;;;;6.00;94.50;;;;;;5085870;28;19916;-74
2022/11/21 02:59:04;;;;;;;;;;;6.00;94.50;;;;;;5085396;28;19912;-74
2022/11/21 03:01:29;;;;;;;;;;;6.00;94.50;;;;;;5061051;28;19917;-74
2022/11/21 03:03:55;;;;;;;;;;;6.00;94.50;;;;;;5065408;28;19916;-74
2022/11/21 03:06:20;;;;;;;;;;;6.00;94.50;;;;;;5065506;28;19995;-74
2022/11/21 03:08:46;;;;;;;;;;;6.00;94.50;;;;;;5044666;28;20317;-74
2022/11/21 03:11:11;;;;;;;;;;;6.00;94.50;;;;;;5045090;28;19917;-74
2022/11/21 03:13:37;;;;;;;;;;;6.00;94.50;;;;;;5053168;28;19912;-74
2022/11/21 03:16:02;;;;;;;;;;;6.00;94.50;;;;;;5066454;28;19993;-73
2022/11/21 03:18:28;;;;;;;;;;;6.00;94.50;;;;;;5065490;28;19912;-74
2022/11/21 03:20:53;;;;;;;;;;;6.00;94.50;;;;;;5080946;28;19920;-73
2022/11/21 03:23:18;;;;;;;;;;;6.00;94.50;;;;;;5085165;28;19916;-73
2022/11/21 03:25:44;;;;;;;;;;;6.00;94.50;;;;;;5085174;28;20465;-74
2022/11/21 03:28:09;;;;;;;;;;;5.90;94.50;;;;;;5085570;28;19908;-74
2022/11/21 03:30:35;;;;;;;;;;;5.90;94.50;;;;;;5074439;28;19916;-74
2022/11/21 03:33:00;;;;;;;;;;;6.00;94.50;;;;;;5081831;28;19916;-74
2022/11/21 03:35:26;;;;;;;;;;;5.90;94.50;;;;;;5085232;28;19956;-73
2022/11/21 03:37:51;;;;;;;;;;;6.00;94.60;;;;;;5073335;28;20607;-73
2022/11/21 03:40:17;;;;;;;;;;;6.00;94.50;;;;;;5063343;28;20007;-74
2022/11/21 03:42:42;;;;;;;;;;;5.90;94.50;;;;;;5065268;28;20477;-73
2022/11/21 03:45:08;;;;;;;;;;;6.00;94.60;;;;;;5065106;28;19920;-74
2022/11/21 03:47:34;;;;;;;;;;;6.00;94.50;;;;;;5067846;28;19938;-73
2022/11/21 03:49:59;;;;;;;;;;;6.00;94.60;;;;;;5085060;28;20317;-74
2022/11/21 03:52:24;;;;;;;;;;;6.00;94.50;;;;;;5085268;28;19957;-74
2022/11/21 03:54:50;;;;;;;;;;;6.00;94.60;;;;;;5084658;28;20011;-74
2022/11/21 03:57:15;;;;;;;;;;;5.90;94.50;;;;;;5084859;28;19915;-74
2022/11/21 03:59:41;;;;;;;;;;;5.90;94.50;;;;;;5081899;28;19958;-74
2022/11/21 04:02:06;;;;;;;;;;;5.90;94.50;;;;;;5064916;28;19965;-74
2022/11/21 04:04:32;;;;;;;;;;;5.90;94.50;;;;;;5064840;28;19960;-74
2022/11/21 04:06:57;;;;;;;;;;;5.90;94.50;;;;;;5059374;28;19959;-74
2022/11/21 04:09:23;;;;;;;;;;;5.90;94.60;;;;;;5044144;28;19913;-74
2022/11/21 04:11:48;;;;;;;;;;;5.90;94.60;;;;;;5064153;28;20138;-74
2022/11/21 04:14:14;;;;;;;;;;;5.90;94.50;;;;;;5066652;28;19912;-74
2022/11/21 04:16:39;;;;;;;;;;;5.90;94.60;;;;;;5068400;28;20372;-74
2022/11/21 04:19:05;;;;;;;;;;;5.90;94.50;;;;;;5070422;28;19973;-74
2022/11/21 04:21:30;;;;;;;;;;;5.90;94.80;;;;;;5079165;28;19916;-74
2022/11/21 04:23:56;;;;;;;;;;;5.90;94.60;;;;;;5068016;28;19927;-74
2022/11/21 04:26:21;;;;;;;;;;;5.90;94.60;;;;;;5068481;28;19923;-74
2022/11/21 04:28:47;;;;;;;;;;;5.90;94.60;;;;;;5068370;28;20739;-74
2022/11/21 04:31:12;;;;;;;;;;;5.90;94.60;;;;;;5068065;28;20431;-74
2022/11/21 04:33:38;;;;;;;;;;;5.90;94.60;;;;;;5068064;28;20027;-74
2022/11/21 04:36:03;;;;;;;;;;;5.90;94.60;;;;;;5067752;28;20321;-74
2022/11/21 04:38:29;;;;;;;;;;;5.90;94.60;;;;;;5069127;28;20011;-74
2022/11/21 04:40:54;;;;;;;;;;;5.90;94.60;;;;;;5083902;28;19916;-74
2022/11/21 04:43:20;;;;;;;;;;;5.90;94.60;;;;;;5078488;28;19924;-74
2022/11/21 04:45:45;;;;;;;;;;;5.90;94.60;;;;;;5068228;28;19913;-74
2022/11/21 04:48:11;;;;;;;;;;;5.90;94.60;;;;;;5068201;28;19908;-74
2022/11/21 04:50:36;;;;;;;;;;;5.90;94.60;;;;;;5082468;28;19919;-73
2022/11/21 04:53:02;;;;;;;;;;;5.90;94.60;;;;;;5087513;28;19912;-73
2022/11/21 04:55:28;;;;;;;;;;;5.90;94.60;;;;;;5087710;28;19916;-73
2022/11/21 04:57:54;;;;;;;;;;;5.90;94.60;;;;;;5088104;28;19912;-74
2022/11/21 05:00:20;;;;;;;;;;;5.90;94.60;;;;;;5076713;28;19962;-74
2022/11/21 05:02:45;;;;;;;;;;;5.90;94.60;;;;;;5064832;28;19919;-74
2022/11/21 05:05:11;;;;;;;;;;;5.90;94.60;;;;;;5067465;28;19916;-74
2022/11/21 05:07:37;;;;;;;;;;;5.90;94.60;;;;;;5057387;28;20003;-73
2022/11/21 05:10:03;;;;;;;;;;;5.90;94.60;;;;;;5048458;28;20388;-74
2022/11/21 05:15:15;;;;;;;;;;;5.90;94.60;;;;;;5063227;28;21541;-73
2022/11/21 05:17:40;;;;;;;;;;;5.90;94.60;;;;;;5067500;28;19919;-73
2022/11/21 05:20:06;;;;;;;;;;;5.90;94.60;;;;;;5064587;28;19936;-73
2022/11/21 05:22:31;;;;;;;;;;;5.90;94.70;;;;;;5067528;28;19962;-73
2022/11/21 05:24:57;;;;;;;;;;;5.90;94.70;;;;;;5061998;28;20426;-74
2022/11/21 05:27:22;;;;;;;;;;;5.90;94.60;;;;;;5065876;28;19920;-73
2022/11/21 05:29:48;;;;;;;;;;;5.90;94.60;;;;;;5066890;28;20420;-73
2022/11/21 05:32:13;;;;;;;;;;;5.90;94.60;;;;;;5067194;28;19920;-74
2022/11/21 05:34:39;;;;;;;;;;;5.90;94.70;;;;;;5067143;28;20678;-73
2022/11/21 05:37:04;;;;;;;;;;;5.80;94.60;;;;;;5066844;28;19919;-74
2022/11/21 05:39:30;;;;;;;;;;;5.90;94.60;;;;;;5065973;28;20003;-74
2022/11/21 05:41:55;;;;;;;;;;;5.90;94.70;;;;;;5065519;28;19908;-73
2022/11/21 05:44:21;;;;;;;;;;;5.90;94.70;;;;;;5066198;28;20570;-73
2022/11/21 05:46:46;;;;;;;;;;;5.80;94.60;;;;;;5065947;28;19913;-73
2022/11/21 05:49:12;;;;;;;;;;;5.80;94.70;;;;;;5069162;28;20539;-74
2022/11/21 05:51:37;;;;;;;;;;;5.90;94.70;;;;;;5086879;28;19912;-74
2022/11/21 05:54:03;;;;;;;;;;;5.90;94.70;;;;;;5087079;28;19912;-73
2022/11/21 05:56:29;;;;;;;;;;;5.80;94.70;;;;;;5079824;28;20580;-74
2022/11/21 05:58:55;;;;;;;;;;;5.80;94.70;;;;;;5062979;28;19912;-73
2022/11/21 06:04:04;;;;;;;;;;;5.80;94.70;;;;;;5066016;28;20011;-73
2022/11/21 06:06:30;;;;;;;;;;;5.80;94.60;;;;;;5065336;28;19995;-74
2022/11/21 06:08:55;;;;;;;;;;;5.80;94.70;;;;;;5066801;28;19934;-74
2022/11/21 06:11:21;;;;;;;;;;;5.80;94.60;;;;;;5066253;28;19928;-74
2022/11/21 06:13:46;;;;;;;;;;;5.80;94.60;;;;;;5066490;28;19912;-73
2022/11/21 06:16:13;;;;;;;;;;;5.80;94.60;;;;;;5066238;28;19920;-73
2022/11/21 06:18:43;;;;;;;;;;;5.80;94.60;;;;;;5083254;28;19915;-73
2022/11/21 06:21:08;;;;;;;;;;;5.80;94.70;;;;;;5086418;28;20014;-73
2022/11/21 06:23:34;;;;;;;;;;;5.80;94.60;;;;;;5085786;28;19918;-73
2022/11/21 06:26:01;;;;;;;;;;;5.80;94.70;;;;;;5086667;28;19916;-74
2022/11/21 06:28:29;;;;;;;;;;;5.80;94.70;;;;;;5086304;28;20549;-73
2022/11/21 06:30:54;;;;;;;;;;;5.80;94.70;;;;;;5072904;28;19919;-74
2022/11/21 06:33:20;;;;;;;;;;;5.80;94.60;;;;;;5068423;28;19920;-74
2022/11/21 06:35:45;;;;;;;;;;;5.80;94.70;;;;;;5084841;28;19912;-74
2022/11/21 06:38:12;;;;;;;;;;;5.80;94.70;;;;;;5070450;28;19912;-73
2022/11/21 06:40:38;;;;;;;;;;;5.80;94.70;;;;;;5065163;28;19951;-74
2022/11/21 06:43:03;;;;;;;;;;;5.80;94.70;;;;;;5065802;28;19959;-73
2022/11/21 06:45:29;;;;;;;;;;;5.80;94.70;;;;;;5064872;28;20284;-74
2022/11/21 06:47:54;;;;;;;;;;;5.80;94.70;;;;;;5065719;28;19908;-73
2022/11/21 06:50:20;;;;;;;;;;;5.80;94.70;;;;;;5070033;28;19925;-73
2022/11/21 06:52:45;;;;;;;;;;;5.80;94.70;;;;;;5065449;28;19956;-73
2022/11/21 06:55:11;;;;;;;;;;;5.80;94.70;;;;;;5065469;28;19913;-73
2022/11/21 06:57:36;;;;;;;;;;;5.80;94.70;;;;;;5065409;28;19912;-73
2022/11/21 07:00:03;;;;;;;;;;;5.80;94.70;;;;;;5065682;28;20526;-73
2022/11/21 07:02:28;;;;;;;;;;;5.80;94.70;;;;;;5065722;28;19908;-73
2022/11/21 07:04:54;;;;;;;;;;;5.80;94.70;;;;;;5065450;28;20569;-73
2022/11/21 07:07:19;;;;;;;;;;;5.80;94.70;;;;;;5069512;28;19950;-74
2022/11/21 07:09:46;;;;;;;;;;;5.80;94.70;;;;;;5065680;28;19920;-73
2022/11/21 07:14:55;;;;;;;;;;;5.80;94.70;;;;;;5065825;28;19919;-74
2022/11/21 07:17:21;;;;;;;;;;;5.80;94.70;;;;;;5065212;28;19913;-73
2022/11/21 07:19:46;;;;;;;;;;;5.80;94.70;;;;;;5072937;28;20096;-73
2022/11/21 07:22:12;;;;;;;;;;;5.80;94.70;;;;;;5082963;28;20388;-74
2022/11/21 07:24:37;;;;;;;;;;;5.80;94.70;;;;;;5066822;28;19920;-73
2022/11/21 07:27:03;;;;;;;;;;;5.80;94.70;;;;;;5065978;28;20402;-73
2022/11/21 07:29:28;;;;;;;;;;;5.90;94.70;;;;;;5065555;28;19912;-73
2022/11/21 07:31:54;;;;;;;;;;;5.80;94.70;;;;;;5063466;28;20443;-73
2022/11/21 07:34:19;;;;;;;;;;;5.90;94.70;;;;;;5065190;28;19917;-74
2022/11/21 07:36:45;;;;;;;;;;;5.90;94.70;;;;;;5065076;28;20423;-73
2022/11/21 07:39:10;;;;;;;;;;;5.90;94.70;;;;;;5065132;28;19912;-73
2022/11/21 07:41:36;;;;;;;;;;;5.90;94.70;;;;;;5065962;28;19916;-73
2022/11/21 07:44:01;;;;;;;;;;;5.90;94.70;;;;;;5065137;28;19955;-73
2022/11/21 07:46:27;;;;;;;;;;;5.90;94.70;;;;;;5065381;28;19981;-73
2022/11/21 07:48:52;;;;;;;;;;;5.90;94.70;;;;;;5066940;28;19960;-73
2022/11/21 07:51:18;;;;;;;;;;;5.90;94.70;;;;;;5088962;28;20019;-73
2022/11/21 07:53:43;;;;;;;;;;;5.90;94.70;;;;;;5089671;28;19920;-73
2022/11/21 07:56:09;;;;;;;;;;;5.90;94.70;;;;;;5088987;28;19912;-74
2022/11/21 07:58:34;;;;;;;;;;;5.90;94.80;;;;;;5070368;28;19944;-74
2022/11/21 08:01:06;;;;;;;;;;;5.90;94.80;;;;;;5068848;28;20328;-73
2022/11/21 08:03:32;;;;;;;;;;;5.90;94.80;;;;;;5068858;28;19917;-74
2022/11/21 08:06:00;;;;;;;;;;;5.90;94.80;;;;;;5068987;28;19912;-73
2022/11/21 08:08:25;;;;;;;;;;;5.90;94.80;;;;;;5068859;28;19912;-73
2022/11/21 08:10:51;;;;;;;;;;;5.90;94.80;;;;;;5069808;28;19927;-73
2022/11/21 08:13:16;;;;;;;;;;;5.90;94.80;;;;;;5087998;28;20561;-74
2022/11/21 08:15:41;;;;;;;;;;;5.90;94.70;;;;;;5089040;28;19912;-73
2022/11/21 08:18:08;;;;;;;;;;;6.00;94.80;;;;;;5088721;28;20376;-74
2022/11/21 08:20:34;;;;;;;;;;;6.00;94.80;;;;;;5088737;28;19919;-74
2022/11/21 08:22:59;;;;;;;;;;;6.00;94.80;;;;;;5088785;28;19916;-73
2022/11/21 08:25:25;;;;;;;;;;;6.00;94.80;;;;;;5089049;28;19916;-73
2022/11/21 08:27:50;;;;;;;;;;;6.00;94.80;;;;;;5088136;28;19912;-74
2022/11/21 08:30:16;;;;;;;;;;;6.00;94.80;;;;;;5077614;28;20641;-73
2022/11/21 08:32:41;;;;;;;;;;;6.00;94.80;;;;;;5064657;28;19912;-73
2022/11/21 08:35:07;;;;;;;;;;;6.00;94.80;;;;;;5068380;28;19935;-73
2022/11/21 08:37:32;;;;;;;;;;;6.00;94.80;;;;;;5058880;28;19912;-73
2022/11/21 08:39:58;;;;;;;;;;;6.00;94.80;;;;;;5048249;28;19913;-73
2022/11/21 08:42:24;;;;;;;;;;;6.00;94.80;;;;;;5049531;28;20692;-74
2022/11/21 08:44:49;;;;;;;;;;;6.00;94.80;;;;;;5068647;28;19964;-74
2022/11/21 08:47:15;;;;;;;;;;;6.00;94.80;;;;;;5067422;28;20655;-74
2022/11/21 08:49:40;;;;;;;;;;;6.10;94.80;;;;;;5074500;28;19912;-74
2022/11/21 08:52:06;;;;;;;;;;;6.00;94.80;;;;;;5087544;28;19999;-74
2022/11/21 08:54:31;;;;;;;;;;;6.00;94.80;;;;;;5087791;28;19912;-73
2022/11/21 08:56:57;;;;;;;;;;;6.10;95.10;;;;;;5088019;28;19912;-74
2022/11/21 08:59:22;;;;;;;;;;;6.10;94.80;;;;;;5084509;28;20349;-74
2022/11/21 09:01:48;;;;;;;;;;;6.10;94.80;;;;;;5069537;28;19920;-73
2022/11/21 09:04:13;;;;;;;;;;;6.10;94.90;;;;;;5066997;28;19921;-73
2022/11/21 09:06:39;;;;;;;;;;;6.10;94.80;;;;;;5064935;28;19924;-73
2022/11/21 09:09:05;;;;;;;;;;;6.10;94.80;;;;;;5047030;28;20251;-73
2022/11/21 09:11:30;;;;;;;;;;;6.10;94.80;;;;;;5059505;28;19925;-73
2022/11/21 09:19:25;;;;;;;;;;;6.10;94.90;;;;;;5065878;28;20590;-73
2022/11/21 09:21:51;;;;;;;;;;;6.10;94.90;;;;;;5067047;28;19909;-74
2022/11/21 09:24:17;;;;;;;;;;;6.10;94.80;;;;;;5066870;28;19912;-73
2022/11/21 09:26:42;;;;;;;;;;;6.10;94.80;;;;;;5067139;28;19919;-73
2022/11/21 09:29:13;;;;;;;;;;;6.20;94.90;;;;;;5080760;28;19912;-73
2022/11/21 09:31:42;;;;;;;;;;;6.10;94.80;;;;;;5060685;28;19916;-74
2022/11/21 09:34:08;;;;;;;;;;;6.10;94.80;;;;;;5066390;28;19974;-73
2022/11/21 09:36:33;;;;;;;;;;;6.20;94.90;;;;;;5064620;28;20490;-73
2022/11/21 09:38:59;;;;;;;;;;;6.20;94.90;;;;;;5047427;28;19920;-73
2022/11/21 09:44:20;;;;;;;;;;;6.20;94.90;;;;;;5062946;28;20383;-73
2022/11/21 09:46:46;;;;;;;;;;;6.20;94.90;;;;;;5066851;28;19914;-74
2022/11/21 09:49:12;;;;;;;;;;;6.20;94.90;;;;;;5070056;28;19912;-74
2022/11/21 09:51:38;;;;;;;;;;;6.20;94.90;;;;;;5086297;28;19963;-73
2022/11/21 09:54:10;;;;;;;;;;;6.20;94.90;;;;;;5087417;28;20002;-73
2022/11/21 09:56:37;;;;;;;;;;;6.30;94.90;;;;;;5085794;28;19985;-74
2022/11/21 09:59:29;;;;;;;;;;;6.30;94.90;;;;;;5086802;28;19916;-73
2022/11/21 10:01:55;;;;;;;;;;;6.30;94.80;;;;;;5061853;28;19912;-73
2022/11/21 10:04:20;;;;;;;;;;;6.30;94.80;;;;;;5066448;28;19946;-73
2022/11/21 10:06:52;;;;;;;;;;;6.30;94.80;;;;;;5066483;28;19917;-73
2022/11/21 10:09:26;;;;;;;;;;;6.30;94.80;;;;;;5066639;28;19913;-73
2022/11/21 10:14:42;;;;;;;;;;;6.30;94.80;;;;;;5067097;28;20586;-73
2022/11/21 10:17:21;;;;;;;;;;;6.40;94.80;;;;;;5065275;28;19912;-74
2022/11/21 10:19:54;;;;;;;;;;;6.40;94.80;;;;;;5073492;28;20318;-74
2022/11/21 10:22:28;;;;;;;;;;;6.40;94.80;;;;;;5085887;28;19912;-74
2022/11/21 10:24:55;;;;;;;;;;;6.50;94.80;;;;;;5085883;28;19916;-73
2022/11/21 10:27:21;;;;;;;;;;;6.50;94.70;;;;;;5085745;28;20283;-74
2022/11/21 10:29:52;;;;;;;;;;;6.50;94.70;;;;;;5081784;28;19913;-73
2022/11/21 10:32:23;;;;;;;;;;;6.60;94.70;;;;;;5068359;28;19913;-74
2022/11/21 10:34:51;;;;;;;;;;;6.60;94.70;;;;;;5066250;28;19912;-74
2022/11/21 10:37:26;;;;;;;;;;;6.60;94.70;;;;;;5059342;28;19913;-74
2022/11/21 10:39:53;;;;;;;;;;;6.60;94.70;;;;;;5046287;28;19998;-74
2022/11/21 10:42:35;;;;;;;;;;;6.60;94.60;;;;;;5047061;28;19919;-73
2022/11/21 10:45:17;;;;;;;;;;;6.60;94.60;;;;;;5066029;28;19920;-74
2022/11/21 10:47:43;;;;;;;;;;;6.70;94.60;;;;;;5067145;28;19916;-74
2022/11/21 10:50:09;;;;;;;;;;;6.70;94.60;;;;;;5076568;28;20329;-73
2022/11/21 10:52:38;;;;;;;;;;;6.70;94.50;;;;;;5086063;28;20003;-73
2022/11/21 10:55:11;;;;;;;;;;;6.70;94.50;;;;;;5086036;28;19912;-73
2022/11/21 10:57:43;;;;;;;;;;;6.70;94.50;;;;;;5086089;28;19908;-73
2022/11/21 11:00:11;;;;;;;;;;;6.80;94.60;;;;;;5079196;28;20003;-73
2022/11/21 11:02:37;;;;;;;;;;;6.80;94.50;;;;;;5065336;28;20532;-73
2022/11/21 11:05:15;;;;;;;;;;;6.80;94.50;;;;;;5077707;28;19920;-73
2022/11/21 11:07:40;;;;;;;;;;;6.80;94.50;;;;;;5075515;28;19919;-73
2022/11/21 11:10:14;;;;;;;;;;;6.90;94.60;;;;;;5065572;28;19913;-73
2022/11/21 11:15:25;;;;;;;;;;;7.00;94.60;;;;;;5065730;28;20008;-73
2022/11/21 11:18:00;;;;;;;;;;;7.00;94.60;;;;;;5065485;28;20377;-73
2022/11/21 11:20:38;;;;;;;;;;;7.00;94.60;;;;;;5077662;28;19912;-73
2022/11/21 11:23:16;;;;;;;;;;;7.00;94.60;;;;;;5064444;28;20434;-73
2022/11/21 11:25:45;;;;;;;;;;;7.00;94.60;;;;;;5065633;28;19923;-73
2022/11/21 11:28:11;;;;;;;;;;;7.00;94.60;;;;;;5065651;28;19924;-73
2022/11/21 11:30:37;;;;;;;;;;;7.00;94.60;;;;;;5065439;28;19935;-73
2022/11/21 11:33:02;;;;;;;;;;;7.10;94.60;;;;;;5065376;28;20555;-73
2022/11/21 11:35:31;;;;;;;;;;;7.10;94.70;;;;;;5065511;28;20034;-73
2022/11/21 11:38:02;;;;;;;;;;;7.10;94.60;;;;;;5073450;28;20003;-73
2022/11/21 11:40:40;;;;;;;;;;;7.10;94.60;;;;;;5071886;28;19959;-73
2022/11/21 11:49:02;;;;;;;;;;;7.20;94.60;;;;;;5066596;28;19944;-73
2022/11/21 11:51:33;;;;;;;;;;;7.20;94.60;;;;;;5085149;28;19992;-73
2022/11/21 11:54:17;;;;;;;;;;;7.20;94.60;;;;;;5080247;28;19917;-73
2022/11/21 11:56:44;;;;;;;;;;;7.30;94.60;;;;;;5062322;28;20726;-73
2022/11/21 11:59:10;;;;;;;;;;;7.30;94.60;;;;;;5062526;28;20042;-73
2022/11/21 12:01:38;;;;;;;;;;;7.30;94.60;;;;;;5064684;28;20004;-73
2022/11/21 12:04:12;;;;;;;;;;;7.30;94.60;;;;;;5064052;28;19920;-73
2022/11/21 12:06:44;;;;;;;;;;;7.30;94.70;;;;;;5063637;28;20020;-73
2022/11/21 12:09:33;;;;;;;;;;;7.30;94.60;;;;;;5065223;28;19912;-73
2022/11/21 12:12:08;;;;;;;;;;;7.40;94.60;;;;;;5061134;28;19925;-74
2022/11/21 12:15:47;;;;;;;;;;;7.40;94.60;;;;;;5065530;28;19925;-73
2022/11/21 12:17:23;;;;;;;;;;;7.40;94.60;;;;;;5068193;28;19924;-73
2022/11/21 12:19:49;;;;;;;;;;;7.40;94.60;;;;;;5084994;28;19908;-73
2022/11/21 12:22:14;;;;;;;;;;;7.40;94.60;;;;;;5085394;28;19912;-74
2022/11/21 12:24:40;;;;;;;;;;;7.40;94.60;;;;;;5085644;28;19920;-73
2022/11/21 12:27:41;;;;;;;;;;;7.40;94.60;;;;;;5068729;28;19919;-73
2022/11/21 12:30:13;;;;;;;;;;;7.40;94.60;;;;;;5041303;28;19912;-73
2022/11/21 12:32:39;;;;;;;;;;;7.40;94.60;;;;;;5060547;28;19924;-73
2022/11/21 12:35:10;;;;;;;;;;;7.40;94.70;;;;;;5077825;28;19916;-73
2022/11/21 12:37:36;;;;;;;;;;;7.40;94.70;;;;;;5078283;28;19913;-73
2022/11/21 12:40:20;;;;;;;;;;;7.50;94.70;;;;;;5068176;28;19913;-73
2022/11/21 12:42:49;;;;;;;;;;;7.50;94.70;;;;;;5068560;28;19954;-73
2022/11/21 12:45:33;;;;;;;;;;;7.50;94.70;;;;;;5068548;28;19939;-73
2022/11/21 12:56:27;;;;;;;;;;;7.60;94.60;;;;;;5068589;28;19982;-73
2022/11/21 12:58:53;;;;;;;;;;;7.60;94.70;;;;;;5068185;28;20699;-73
2022/11/21 13:01:19;;;;;;;;;;;7.50;94.60;;;;;;5067953;28;19912;-73
2022/11/21 13:03:48;;;;;;;;;;;7.60;94.70;;;;;;5067908;28;20569;-73
2022/11/21 13:06:20;;;;;;;;;;;7.60;94.70;;;;;;5067440;28;19913;-73
2022/11/21 13:08:47;;;;;;;;;;;7.60;94.70;;;;;;5047983;28;19954;-73
2022/11/21 13:14:11;;;;;;;;;;;7.60;94.70;;;;;;5047829;28;19944;-73
2022/11/21 13:16:38;;;;;;;;;;;7.70;94.60;;;;;;5048023;28;19994;-73
2022/11/21 13:19:23;;;;;;;;;;;7.70;94.60;;;;;;5086909;28;19916;-73
2022/11/21 13:21:50;;;;;;;;;;;7.70;94.60;;;;;;5088225;28;19918;-73
2022/11/21 13:24:34;;;;;;;;;;;7.70;94.70;;;;;;5087702;28;19943;-73
2022/11/21 13:26:59;;;;;;;;;;;7.70;94.60;;;;;;5087855;28;20313;-73
2022/11/21 13:29:25;;;;;;;;;;;7.70;94.70;;;;;;5086894;28;20006;-73
2022/11/21 13:31:50;;;;;;;;;;;7.70;94.70;;;;;;5066319;28;19912;-73
2022/11/21 13:34:33;;;;;;;;;;;7.70;94.70;;;;;;5068647;28;19928;-73
2022/11/21 13:36:59;;;;;;;;;;;7.70;94.60;;;;;;5064602;28;19924;-73
2022/11/21 13:39:25;;;;;;;;;;;7.70;94.70;;;;;;5066187;28;20458;-73
2022/11/21 13:44:47;;;;;;;;;;;7.70;94.80;;;;;;5067247;28;19960;-73
2022/11/21 13:47:24;;;;;;;;;;;7.70;94.80;;;;;;5086220;28;19916;-73
2022/11/21 13:49:55;;;;;;;;;;;7.70;94.80;;;;;;5086194;28;19923;-74
2022/11/21 13:52:21;;;;;;;;;;;7.60;94.80;;;;;;5086456;28;19908;-73
2022/11/21 13:54:49;;;;;;;;;;;7.70;94.80;;;;;;5086345;28;20583;-73
2022/11/21 13:57:18;;;;;;;;;;;7.70;94.80;;;;;;5086656;28;19912;-73
2022/11/21 13:59:43;;;;;;;;;;;7.70;94.90;;;;;;5082581;28;19924;-73
2022/11/21 14:02:12;;;;;;;;;;;7.70;94.90;;;;;;5060296;28;19987;-73
2022/11/21 14:04:37;;;;;;;;;;;7.70;94.90;;;;;;5064750;28;19926;-73
2022/11/21 14:07:21;;;;;;;;;;;7.60;94.90;;;;;;5060446;28;19995;-73
2022/11/21 14:09:48;;;;;;;;;;;7.70;94.90;;;;;;5081184;28;19927;-73
2022/11/21 14:12:23;;;;;;;;;;;7.70;94.90;;;;;;5065961;28;19920;-73
2022/11/21 14:15:00;;;;;;;;;;;7.70;94.90;;;;;;5064483;28;20022;-73
2022/11/21 14:17:26;;;;;;;;;;;7.60;94.90;;;;;;5065224;28;19913;-73
2022/11/21 14:19:53;;;;;;;;;;;7.70;95.00;;;;;;5065618;28;19912;-73
2022/11/21 14:22:34;;;;;;;;;;;7.60;95.00;;;;;;5063829;28;20003;-73
2022/11/21 14:25:00;;;;;;;;;;;7.60;95.00;;;;;;5063585;28;19920;-74
2022/11/21 14:27:31;;;;;;;;;;;7.60;95.00;;;;;;5065214;28;19962;-75
2022/11/21 14:29:57;;;;;;;;;;;7.60;95.00;;;;;;5065116;28;19913;-74
2022/11/21 14:32:29;;;;;;;;;;;7.60;95.00;;;;;;5070220;28;20726;-74
2022/11/21 14:35:08;;;;;;;;;;;7.60;95.10;;;;;;5085551;28;19908;-75
2022/11/21 14:37:34;;;;;;;;;;;7.60;95.10;;;;;;5075429;28;19913;-75
2022/11/21 14:40:02;;;;;;;;;;;7.60;95.20;;;;;;5064537;28;19958;-73
2022/11/21 14:42:34;;;;;;;;;;;7.50;95.10;;;;;;5064761;28;20095;-73
2022/11/21 14:45:19;;;;;;;;;;;7.50;95.10;;;;;;5065034;28;19921;-73
2022/11/21 14:47:53;;;;;;;;;;;7.50;95.10;;;;;;5063671;28;19913;-73
2022/11/21 14:50:33;;;;;;;;;;;7.50;95.20;;;;;;5077319;28;19912;-73
2022/11/21 14:53:00;;;;;;;;;;;7.50;95.20;;;;;;5077665;28;19916;-73
2022/11/21 14:55:27;;;;;;;;;;;7.50;95.20;;;;;;5064672;28;19913;-73
2022/11/21 14:57:54;;;;;;;;;;;7.50;95.20;;;;;;5063769;28;19962;-73
2022/11/21 15:00:21;;;;;;;;;;;7.40;95.30;;;;;;5064126;28;19913;-73
2022/11/21 15:02:49;;;;;;;;;;;7.40;95.30;;;;;;5064149;28;20487;-73
2022/11/21 15:05:15;;;;;;;;;;;7.40;95.30;;;;;;5065494;28;19931;-73
2022/11/21 15:07:41;;;;;;;;;;;7.40;95.40;;;;;;5062811;28;19931;-73
2022/11/21 15:10:10;;;;;;;;;;;7.40;95.40;;;;;;5064945;28;20362;-73
2022/11/21 15:12:58;;;;;;;;;;;7.30;95.40;;;;;;5064271;28;19920;-73
2022/11/21 15:15:34;;;;;;;;;;;7.30;95.40;;;;;;5061852;28;20003;-73